sensor_id;sensor_type;location;lat;lon;timestamp;P1;durP1;ratioP1;P2;durP2;ratioP2
64242;SDS011;50573;51.512;5.386;2023-03-12T00:08:34;13.48;;;6.40;;
64242;SDS011;50573;51.512;5.386;2023-03-12T00:18:38;12.97;;;4.87;;
64242;SDS011;50573;51.512;5.386;2023-03-12T00:28:43;13.93;;;4.60;;
64242;SDS011;50573;51.512;5.386;2023-03-12T00:38:45;20.07;;;6.60;;
64242;SDS011;50573;51.512;5.386;2023-03-12T00:48:50;17.85;;;5.03;;
64242;SDS011;50573;51.512;5.386;2023-03-12T00:58:53;18.93;;;4.73;;
64242;SDS011;50573;51.512;5.386;2023-03-12T01:08:57;13.00;;;4.80;;
64242;SDS011;50573;51.512;5.386;2023-03-12T01:19:02;15.13;;;5.32;;
64242;SDS011;50573;51.512;5.386;2023-03-12T01:29:07;13.65;;;5.07;;
64242;SDS011;50573;51.512;5.386;2023-03-12T01:39:10;10.60;;;5.13;;
64242;SDS011;50573;51.512;5.386;2023-03-12T01:49:15;13.23;;;5.07;;
64242;SDS011;50573;51.512;5.386;2023-03-12T01:59:22;14.57;;;5.50;;
64242;SDS011;50573;51.512;5.386;2023-03-12T02:09:28;11.13;;;4.63;;
64242;SDS011;50573;51.512;5.386;2023-03-12T02:19:36;13.68;;;5.63;;
64242;SDS011;50573;51.512;5.386;2023-03-12T02:29:47;19.40;;;5.93;;
64242;SDS011;50573;51.512;5.386;2023-03-12T02:39:53;15.43;;;4.90;;
64242;SDS011;50573;51.512;5.386;2023-03-12T02:50:04;15.65;;;6.15;;
64242;SDS011;50573;51.512;5.386;2023-03-12T03:00:08;10.40;;;5.85;;
64242;SDS011;50573;51.512;5.386;2023-03-12T03:10:16;15.13;;;6.18;;
64242;SDS011;50573;51.512;5.386;2023-03-12T03:20:20;15.70;;;6.10;;
64242;SDS011;50573;51.512;5.386;2023-03-12T03:30:26;18.75;;;5.68;;
64242;SDS011;50573;51.512;5.386;2023-03-12T03:50:34;14.20;;;5.72;;
64242;SDS011;50573;51.512;5.386;2023-03-12T04:00:38;21.83;;;5.65;;
64242;SDS011;50573;51.512;5.386;2023-03-12T04:10:43;14.10;;;6.15;;
64242;SDS011;50573;51.512;5.386;2023-03-12T04:20:46;11.63;;;5.70;;
64242;SDS011;50573;51.512;5.386;2023-03-12T04:30:54;13.00;;;5.22;;
64242;SDS011;50573;51.512;5.386;2023-03-12T04:41:01;19.00;;;6.22;;
64242;SDS011;50573;51.512;5.386;2023-03-12T04:51:08;10.82;;;5.63;;
64242;SDS011;50573;51.512;5.386;2023-03-12T05:11:22;19.95;;;5.97;;
64242;SDS011;50573;51.512;5.386;2023-03-12T05:21:25;15.77;;;5.55;;
64242;SDS011;50573;51.512;5.386;2023-03-12T05:41:38;16.67;;;6.85;;
64242;SDS011;50573;51.512;5.386;2023-03-12T05:51:49;18.10;;;6.93;;
64242;SDS011;50573;51.512;5.386;2023-03-12T06:01:55;21.23;;;6.82;;
64242;SDS011;50573;51.512;5.386;2023-03-12T06:12:00;14.50;;;5.40;;
64242;SDS011;50573;51.512;5.386;2023-03-12T06:22:04;22.33;;;7.32;;
64242;SDS011;50573;51.512;5.386;2023-03-12T06:32:08;15.00;;;7.45;;
64242;SDS011;50573;51.512;5.386;2023-03-12T06:42:12;17.47;;;8.67;;
64242;SDS011;50573;51.512;5.386;2023-03-12T06:52:17;17.25;;;10.60;;
64242;SDS011;50573;51.512;5.386;2023-03-12T07:02:21;24.25;;;11.20;;
64242;SDS011;50573;51.512;5.386;2023-03-12T07:12:25;21.17;;;10.50;;
64242;SDS011;50573;51.512;5.386;2023-03-12T07:22:30;26.92;;;12.07;;
64242;SDS011;50573;51.512;5.386;2023-03-12T07:32:35;20.70;;;12.63;;
64242;SDS011;50573;51.512;5.386;2023-03-12T07:42:38;28.33;;;13.30;;
64242;SDS011;50573;51.512;5.386;2023-03-12T07:52:43;29.77;;;15.00;;
64242;SDS011;50573;51.512;5.386;2023-03-12T08:02:46;27.98;;;13.27;;
64242;SDS011;50573;51.512;5.386;2023-03-12T08:12:50;25.27;;;14.10;;
64242;SDS011;50573;51.512;5.386;2023-03-12T08:22:53;21.90;;;14.07;;
64242;SDS011;50573;51.512;5.386;2023-03-12T08:32:58;24.70;;;14.20;;
64242;SDS011;50573;51.512;5.386;2023-03-12T08:43:01;21.77;;;14.33;;
64242;SDS011;50573;51.512;5.386;2023-03-12T08:53:06;19.77;;;14.60;;
64242;SDS011;50573;51.512;5.386;2023-03-12T09:03:08;28.20;;;17.10;;
64242;SDS011;50573;51.512;5.386;2023-03-12T09:13:16;36.78;;;22.10;;
64242;SDS011;50573;51.512;5.386;2023-03-12T09:23:19;32.23;;;21.50;;
64242;SDS011;50573;51.512;5.386;2023-03-12T09:33:24;32.60;;;23.02;;
64242;SDS011;50573;51.512;5.386;2023-03-12T09:43:28;32.67;;;23.38;;
64242;SDS011;50573;51.512;5.386;2023-03-12T09:53:56;27.10;;;21.83;;
64242;SDS011;50573;51.512;5.386;2023-03-12T10:04:06;30.00;;;23.42;;
64242;SDS011;50573;51.512;5.386;2023-03-12T10:14:24;32.65;;;23.75;;
64242;SDS011;50573;51.512;5.386;2023-03-12T10:24:38;36.10;;;22.98;;
64242;SDS011;50573;51.512;5.386;2023-03-12T10:34:51;44.40;;;25.45;;
64242;SDS011;50573;51.512;5.386;2023-03-12T10:44:58;42.33;;;25.65;;
64242;SDS011;50573;51.512;5.386;2023-03-12T10:55:18;51.63;;;24.40;;
64242;SDS011;50573;51.512;5.386;2023-03-12T11:05:27;46.58;;;23.20;;
64242;SDS011;50573;51.512;5.386;2023-03-12T11:15:43;49.70;;;20.17;;
64242;SDS011;50573;51.512;5.386;2023-03-12T11:25:52;57.03;;;18.48;;
64242;SDS011;50573;51.512;5.386;2023-03-12T11:36:04;42.63;;;15.55;;
64242;SDS011;50573;51.512;5.386;2023-03-12T11:46:34;49.65;;;16.35;;
64242;SDS011;50573;51.512;5.386;2023-03-12T11:56:47;47.25;;;17.45;;
64242;SDS011;50573;51.512;5.386;2023-03-12T12:06:55;38.35;;;15.25;;
64242;SDS011;50573;51.512;5.386;2023-03-12T12:17:14;38.47;;;11.57;;
64242;SDS011;50573;51.512;5.386;2023-03-12T12:27:27;36.78;;;9.18;;
64242;SDS011;50573;51.512;5.386;2023-03-12T12:37:41;33.33;;;9.77;;
64242;SDS011;50573;51.512;5.386;2023-03-12T12:47:52;42.53;;;11.93;;
64242;SDS011;50573;51.512;5.386;2023-03-12T12:58:00;41.92;;;12.65;;
64242;SDS011;50573;51.512;5.386;2023-03-12T13:08:09;39.78;;;11.85;;
64242;SDS011;50573;51.512;5.386;2023-03-12T13:18:35;36.20;;;10.93;;
64242;SDS011;50573;51.512;5.386;2023-03-12T13:28:55;43.30;;;11.82;;
64242;SDS011;50573;51.512;5.386;2023-03-12T13:39:18;42.15;;;11.55;;
64242;SDS011;50573;51.512;5.386;2023-03-12T13:49:33;44.55;;;11.45;;
64242;SDS011;50573;51.512;5.386;2023-03-12T13:59:44;41.35;;;9.93;;
64242;SDS011;50573;51.512;5.386;2023-03-12T14:09:54;41.13;;;10.00;;
64242;SDS011;50573;51.512;5.386;2023-03-12T14:20:11;32.92;;;8.60;;
64242;SDS011;50573;51.512;5.386;2023-03-12T14:30:19;37.15;;;7.60;;
64242;SDS011;50573;51.512;5.386;2023-03-12T14:40:29;35.90;;;7.88;;
64242;SDS011;50573;51.512;5.386;2023-03-12T14:50:40;40.13;;;8.48;;
64242;SDS011;50573;51.512;5.386;2023-03-12T15:00:45;40.80;;;8.80;;
64242;SDS011;50573;51.512;5.386;2023-03-12T15:10:58;46.80;;;8.97;;
64242;SDS011;50573;51.512;5.386;2023-03-12T15:21:02;45.42;;;8.63;;
64242;SDS011;50573;51.512;5.386;2023-03-12T15:31:07;43.28;;;10.25;;
64242;SDS011;50573;51.512;5.386;2023-03-12T15:41:16;45.25;;;8.88;;
64242;SDS011;50573;51.512;5.386;2023-03-12T15:51:26;35.10;;;8.15;;
64242;SDS011;50573;51.512;5.386;2023-03-12T16:01:44;37.60;;;7.95;;
64242;SDS011;50573;51.512;5.386;2023-03-12T16:11:49;37.80;;;7.40;;
64242;SDS011;50573;51.512;5.386;2023-03-12T16:21:54;36.42;;;7.85;;
64242;SDS011;50573;51.512;5.386;2023-03-12T16:31:58;38.88;;;7.85;;
64242;SDS011;50573;51.512;5.386;2023-03-12T16:42:03;43.75;;;7.85;;
64242;SDS011;50573;51.512;5.386;2023-03-12T16:52:15;38.65;;;8.18;;
64242;SDS011;50573;51.512;5.386;2023-03-12T17:02:21;50.83;;;9.65;;
64242;SDS011;50573;51.512;5.386;2023-03-12T17:12:26;36.47;;;7.63;;
64242;SDS011;50573;51.512;5.386;2023-03-12T17:22:32;43.90;;;8.15;;
64242;SDS011;50573;51.512;5.386;2023-03-12T17:32:35;40.03;;;7.73;;
64242;SDS011;50573;51.512;5.386;2023-03-12T17:42:40;39.35;;;7.65;;
64242;SDS011;50573;51.512;5.386;2023-03-12T17:52:43;48.07;;;8.97;;
64242;SDS011;50573;51.512;5.386;2023-03-12T18:02:48;34.80;;;8.48;;
64242;SDS011;50573;51.512;5.386;2023-03-12T18:12:51;49.55;;;8.18;;
64242;SDS011;50573;51.512;5.386;2023-03-12T18:22:55;40.45;;;8.90;;
64242;SDS011;50573;51.512;5.386;2023-03-12T18:32:58;46.33;;;9.67;;
64242;SDS011;50573;51.512;5.386;2023-03-12T18:43:03;48.63;;;8.60;;
64242;SDS011;50573;51.512;5.386;2023-03-12T18:53:06;46.10;;;8.95;;
64242;SDS011;50573;51.512;5.386;2023-03-12T19:03:11;46.53;;;9.98;;
64242;SDS011;50573;51.512;5.386;2023-03-12T19:13:14;44.07;;;8.10;;
64242;SDS011;50573;51.512;5.386;2023-03-12T19:23:18;45.17;;;7.78;;
64242;SDS011;50573;51.512;5.386;2023-03-12T19:43:26;52.03;;;9.77;;
64242;SDS011;50573;51.512;5.386;2023-03-12T19:53:29;43.08;;;9.00;;
64242;SDS011;50573;51.512;5.386;2023-03-12T20:03:34;57.85;;;8.85;;
64242;SDS011;50573;51.512;5.386;2023-03-12T20:13:44;52.97;;;9.85;;
64242;SDS011;50573;51.512;5.386;2023-03-12T20:23:48;49.80;;;10.27;;
64242;SDS011;50573;51.512;5.386;2023-03-12T20:33:51;47.87;;;9.23;;
64242;SDS011;50573;51.512;5.386;2023-03-12T20:43:56;50.33;;;9.98;;
64242;SDS011;50573;51.512;5.386;2023-03-12T20:53:59;41.63;;;8.73;;
64242;SDS011;50573;51.512;5.386;2023-03-12T21:04:03;39.22;;;9.05;;
64242;SDS011;50573;51.512;5.386;2023-03-12T21:14:06;51.97;;;9.70;;
64242;SDS011;50573;51.512;5.386;2023-03-12T21:24:11;36.33;;;7.90;;
64242;SDS011;50573;51.512;5.386;2023-03-12T21:34:14;32.83;;;5.97;;
64242;SDS011;50573;51.512;5.386;2023-03-12T21:44:18;38.22;;;7.05;;
64242;SDS011;50573;51.512;5.386;2023-03-12T21:54:21;28.17;;;7.03;;
64242;SDS011;50573;51.512;5.386;2023-03-12T22:04:26;47.08;;;8.63;;
64242;SDS011;50573;51.512;5.386;2023-03-12T22:14:29;36.67;;;8.30;;
64242;SDS011;50573;51.512;5.386;2023-03-12T22:24:34;27.85;;;6.97;;
64242;SDS011;50573;51.512;5.386;2023-03-12T22:34:38;36.00;;;6.82;;
64242;SDS011;50573;51.512;5.386;2023-03-12T22:44:42;25.67;;;6.40;;
64242;SDS011;50573;51.512;5.386;2023-03-12T22:54:45;30.60;;;6.30;;
64242;SDS011;50573;51.512;5.386;2023-03-12T23:04:49;38.75;;;7.38;;
64242;SDS011;50573;51.512;5.386;2023-03-12T23:14:52;28.15;;;5.72;;
64242;SDS011;50573;51.512;5.386;2023-03-12T23:24:57;28.23;;;6.30;;
64242;SDS011;50573;51.512;5.386;2023-03-12T23:35:00;26.20;;;6.43;;
64242;SDS011;50573;51.512;5.386;2023-03-12T23:45:05;31.10;;;5.95;;
64242;SDS011;50573;51.512;5.386;2023-03-12T23:55:09;28.88;;;5.65;;
